メインページ
METAR-TAF:

METAR-TAF

空港 :

Wiscasset Airport

Wiscasset, メイン州, アメリカ合衆国

緯度: 43-57-49N, 経度: 069-42-42W, 海抜: 20m

現時点の気象観測

当レポートは51分前の17:53(UTC)に作成
の風 8kt、南東からの間で変化する
気温 22°C
湿度 65%
気圧 1023 hPa
視程: 16.1km
晴天

METAR: KIWI 261753Z AUTO 17008KT 130V190 10SM CLR 22/15 A3020 RMK AO2 SLP226 T02170150 10217 20128 58013

時間: 14:44 (18:44 UTC)


TAF: 見つかりません

4,000以上の空港の気象観測と天気予報(METAR報とTAF報)

利用可能な観測所は地図上に黄色い丸と赤い丸で示す。

丸の上にカーソルを重ねると観測所名を参照できる。

次にクリックすると気象観測と天気予報を参照できる。

マップの切り替え:黒色「×」印の緑ボタンをクリックして拡大、「-」印の緑ボタンをクリックして縮小、緑色の三角印をクリックして隣りの地図に切り替え


METAR-TAF: